sensor_id;sensor_type;location;lat;lon;timestamp;P1;durP1;ratioP1;P2;durP2;ratioP2
46765;SDS011;32527;51.986;5.842;2023-07-29T00:01:22;12.25;;;11.35;;
46765;SDS011;32527;51.986;5.842;2023-07-29T00:03:48;11.43;;;10.43;;
46765;SDS011;32527;51.986;5.842;2023-07-29T00:06:14;13.45;;;12.35;;
46765;SDS011;32527;51.986;5.842;2023-07-29T00:08:40;11.73;;;10.52;;
46765;SDS011;32527;51.986;5.842;2023-07-29T00:11:07;10.23;;;9.35;;
46765;SDS011;32527;51.986;5.842;2023-07-29T00:13:33;12.07;;;11.02;;
46765;SDS011;32527;51.986;5.842;2023-07-29T00:15:59;12.98;;;12.07;;
46765;SDS011;32527;51.986;5.842;2023-07-29T00:18:25;10.68;;;9.88;;
46765;SDS011;32527;51.986;5.842;2023-07-29T00:20:52;7.68;;;6.97;;
46765;SDS011;32527;51.986;5.842;2023-07-29T00:23:18;9.77;;;9.05;;
46765;SDS011;32527;51.986;5.842;2023-07-29T00:25:44;10.25;;;9.45;;
46765;SDS011;32527;51.986;5.842;2023-07-29T00:28:11;9.80;;;9.10;;
46765;SDS011;32527;51.986;5.842;2023-07-29T00:30:37;11.07;;;10.32;;
46765;SDS011;32527;51.986;5.842;2023-07-29T00:33:04;8.75;;;8.05;;
46765;SDS011;32527;51.986;5.842;2023-07-29T00:35:30;8.50;;;7.80;;
46765;SDS011;32527;51.986;5.842;2023-07-29T00:37:59;10.02;;;9.27;;
46765;SDS011;32527;51.986;5.842;2023-07-29T00:40:25;9.68;;;8.25;;
46765;SDS011;32527;51.986;5.842;2023-07-29T00:42:53;9.13;;;8.45;;
46765;SDS011;32527;51.986;5.842;2023-07-29T00:45:19;10.15;;;9.50;;
46765;SDS011;32527;51.986;5.842;2023-07-29T00:47:46;8.23;;;7.63;;
46765;SDS011;32527;51.986;5.842;2023-07-29T00:50:12;9.15;;;8.55;;
46765;SDS011;32527;51.986;5.842;2023-07-29T00:52:38;8.80;;;8.23;;
46765;SDS011;32527;51.986;5.842;2023-07-29T00:55:05;10.23;;;9.63;;
46765;SDS011;32527;51.986;5.842;2023-07-29T00:57:32;11.82;;;10.93;;
46765;SDS011;32527;51.986;5.842;2023-07-29T00:59:58;11.57;;;10.90;;
46765;SDS011;32527;51.986;5.842;2023-07-29T01:02:25;10.88;;;9.85;;
46765;SDS011;32527;51.986;5.842;2023-07-29T01:04:55;10.65;;;10.05;;
46765;SDS011;32527;51.986;5.842;2023-07-29T01:07:30;9.80;;;9.20;;
46765;SDS011;32527;51.986;5.842;2023-07-29T01:12:35;11.38;;;10.68;;
46765;SDS011;32527;51.986;5.842;2023-07-29T01:15:19;9.10;;;8.50;;
46765;SDS011;32527;51.986;5.842;2023-07-29T01:18:17;9.87;;;9.27;;
46765;SDS011;32527;51.986;5.842;2023-07-29T01:20:47;8.50;;;7.95;;
46765;SDS011;32527;51.986;5.842;2023-07-29T01:23:13;9.10;;;8.48;;
46765;SDS011;32527;51.986;5.842;2023-07-29T01:25:41;11.60;;;10.70;;
46765;SDS011;32527;51.986;5.842;2023-07-29T01:28:07;9.57;;;8.77;;
46765;SDS011;32527;51.986;5.842;2023-07-29T01:30:37;11.38;;;10.63;;
46765;SDS011;32527;51.986;5.842;2023-07-29T01:33:18;13.07;;;12.07;;
46765;SDS011;32527;51.986;5.842;2023-07-29T01:35:52;12.25;;;11.38;;
46765;SDS011;32527;51.986;5.842;2023-07-29T01:38:30;11.68;;;10.65;;
46765;SDS011;32527;51.986;5.842;2023-07-29T01:41:03;12.55;;;11.63;;
46765;SDS011;32527;51.986;5.842;2023-07-29T01:43:31;12.02;;;10.75;;
46765;SDS011;32527;51.986;5.842;2023-07-29T01:45:57;10.70;;;9.82;;
46765;SDS011;32527;51.986;5.842;2023-07-29T01:48:24;10.75;;;9.95;;
46765;SDS011;32527;51.986;5.842;2023-07-29T01:50:50;12.13;;;11.15;;
46765;SDS011;32527;51.986;5.842;2023-07-29T01:53:16;10.35;;;9.45;;
46765;SDS011;32527;51.986;5.842;2023-07-29T01:55:43;10.77;;;9.88;;
46765;SDS011;32527;51.986;5.842;2023-07-29T01:58:10;11.63;;;10.65;;
46765;SDS011;32527;51.986;5.842;2023-07-29T02:00:37;13.10;;;11.82;;
46765;SDS011;32527;51.986;5.842;2023-07-29T02:03:03;11.57;;;10.77;;
46765;SDS011;32527;51.986;5.842;2023-07-29T02:05:29;10.68;;;9.75;;
46765;SDS011;32527;51.986;5.842;2023-07-29T02:07:55;11.63;;;10.15;;
46765;SDS011;32527;51.986;5.842;2023-07-29T02:10:21;11.52;;;10.38;;
46765;SDS011;32527;51.986;5.842;2023-07-29T02:12:48;12.35;;;11.38;;
46765;SDS011;32527;51.986;5.842;2023-07-29T02:15:14;10.13;;;9.00;;
46765;SDS011;32527;51.986;5.842;2023-07-29T02:17:41;11.07;;;9.95;;
46765;SDS011;32527;51.986;5.842;2023-07-29T02:20:07;12.18;;;11.18;;
46765;SDS011;32527;51.986;5.842;2023-07-29T02:22:34;11.55;;;10.65;;
46765;SDS011;32527;51.986;5.842;2023-07-29T02:25:00;11.57;;;10.60;;
46765;SDS011;32527;51.986;5.842;2023-07-29T02:27:26;11.75;;;10.80;;
46765;SDS011;32527;51.986;5.842;2023-07-29T02:29:53;9.75;;;8.90;;
46765;SDS011;32527;51.986;5.842;2023-07-29T02:32:19;12.30;;;11.32;;
46765;SDS011;32527;51.986;5.842;2023-07-29T02:34:45;10.55;;;9.60;;
46765;SDS011;32527;51.986;5.842;2023-07-29T02:37:12;10.73;;;9.65;;
46765;SDS011;32527;51.986;5.842;2023-07-29T02:39:38;12.73;;;9.93;;
46765;SDS011;32527;51.986;5.842;2023-07-29T02:42:04;11.80;;;10.70;;
46765;SDS011;32527;51.986;5.842;2023-07-29T02:44:30;10.43;;;9.43;;
46765;SDS011;32527;51.986;5.842;2023-07-29T02:46:57;15.02;;;13.50;;
46765;SDS011;32527;51.986;5.842;2023-07-29T02:49:23;12.60;;;10.48;;
46765;SDS011;32527;51.986;5.842;2023-07-29T02:51:49;12.95;;;11.80;;
46765;SDS011;32527;51.986;5.842;2023-07-29T02:54:15;11.43;;;9.77;;
46765;SDS011;32527;51.986;5.842;2023-07-29T02:56:41;12.77;;;11.73;;
46765;SDS011;32527;51.986;5.842;2023-07-29T02:59:07;9.90;;;9.00;;
46765;SDS011;32527;51.986;5.842;2023-07-29T03:01:33;10.52;;;9.63;;
46765;SDS011;32527;51.986;5.842;2023-07-29T03:03:59;9.48;;;8.57;;
46765;SDS011;32527;51.986;5.842;2023-07-29T03:06:26;9.77;;;8.85;;
46765;SDS011;32527;51.986;5.842;2023-07-29T03:08:52;11.70;;;10.60;;
46765;SDS011;32527;51.986;5.842;2023-07-29T03:11:18;12.30;;;10.35;;
46765;SDS011;32527;51.986;5.842;2023-07-29T03:13:45;9.80;;;8.90;;
46765;SDS011;32527;51.986;5.842;2023-07-29T03:16:15;10.82;;;9.88;;
46765;SDS011;32527;51.986;5.842;2023-07-29T03:18:48;12.82;;;11.63;;
46765;SDS011;32527;51.986;5.842;2023-07-29T03:21:14;10.40;;;9.50;;
46765;SDS011;32527;51.986;5.842;2023-07-29T03:23:40;11.55;;;10.43;;
46765;SDS011;32527;51.986;5.842;2023-07-29T03:26:07;11.32;;;10.30;;
46765;SDS011;32527;51.986;5.842;2023-07-29T03:28:40;12.77;;;11.68;;
46765;SDS011;32527;51.986;5.842;2023-07-29T03:31:07;10.73;;;9.82;;
46765;SDS011;32527;51.986;5.842;2023-07-29T03:33:33;9.57;;;8.77;;
46765;SDS011;32527;51.986;5.842;2023-07-29T03:36:00;11.73;;;10.82;;
46765;SDS011;32527;51.986;5.842;2023-07-29T03:38:26;10.48;;;9.68;;
46765;SDS011;32527;51.986;5.842;2023-07-29T03:40:52;11.45;;;10.43;;
46765;SDS011;32527;51.986;5.842;2023-07-29T03:43:19;9.05;;;8.27;;
46765;SDS011;32527;51.986;5.842;2023-07-29T03:45:45;12.55;;;11.65;;
46765;SDS011;32527;51.986;5.842;2023-07-29T03:48:11;10.43;;;9.63;;
46765;SDS011;32527;51.986;5.842;2023-07-29T03:50:38;10.07;;;9.38;;
46765;SDS011;32527;51.986;5.842;2023-07-29T03:53:05;12.40;;;11.50;;
46765;SDS011;32527;51.986;5.842;2023-07-29T03:55:31;11.00;;;10.20;;
46765;SDS011;32527;51.986;5.842;2023-07-29T03:57:58;11.45;;;10.63;;
46765;SDS011;32527;51.986;5.842;2023-07-29T04:00:24;10.27;;;9.57;;
46765;SDS011;32527;51.986;5.842;2023-07-29T04:02:51;9.95;;;9.25;;
46765;SDS011;32527;51.986;5.842;2023-07-29T04:05:17;11.27;;;10.23;;
46765;SDS011;32527;51.986;5.842;2023-07-29T04:07:43;12.73;;;11.73;;
46765;SDS011;32527;51.986;5.842;2023-07-29T04:10:10;11.32;;;10.30;;
46765;SDS011;32527;51.986;5.842;2023-07-29T04:12:37;10.27;;;9.43;;
46765;SDS011;32527;51.986;5.842;2023-07-29T04:15:03;11.20;;;10.38;;
46765;SDS011;32527;51.986;5.842;2023-07-29T04:17:29;11.55;;;10.73;;
46765;SDS011;32527;51.986;5.842;2023-07-29T04:19:55;11.68;;;10.77;;
46765;SDS011;32527;51.986;5.842;2023-07-29T04:22:26;11.00;;;10.20;;
46765;SDS011;32527;51.986;5.842;2023-07-29T04:24:52;12.57;;;11.68;;
46765;SDS011;32527;51.986;5.842;2023-07-29T04:27:18;12.27;;;11.38;;
46765;SDS011;32527;51.986;5.842;2023-07-29T04:29:45;11.57;;;10.75;;
46765;SDS011;32527;51.986;5.842;2023-07-29T04:32:11;10.63;;;9.75;;
46765;SDS011;32527;51.986;5.842;2023-07-29T04:34:37;12.05;;;11.25;;
46765;SDS011;32527;51.986;5.842;2023-07-29T04:37:03;13.27;;;12.38;;
46765;SDS011;32527;51.986;5.842;2023-07-29T04:39:29;11.55;;;10.68;;
46765;SDS011;32527;51.986;5.842;2023-07-29T04:41:55;9.70;;;9.00;;
46765;SDS011;32527;51.986;5.842;2023-07-29T04:44:22;13.23;;;12.30;;
46765;SDS011;32527;51.986;5.842;2023-07-29T04:46:49;13.98;;;12.95;;
46765;SDS011;32527;51.986;5.842;2023-07-29T04:49:15;11.15;;;10.40;;
46765;SDS011;32527;51.986;5.842;2023-07-29T04:51:41;10.82;;;9.93;;
46765;SDS011;32527;51.986;5.842;2023-07-29T04:54:07;13.32;;;12.27;;
46765;SDS011;32527;51.986;5.842;2023-07-29T04:56:33;11.23;;;10.43;;
46765;SDS011;32527;51.986;5.842;2023-07-29T04:58:59;11.93;;;10.82;;
46765;SDS011;32527;51.986;5.842;2023-07-29T05:01:25;11.23;;;10.43;;
46765;SDS011;32527;51.986;5.842;2023-07-29T05:03:51;11.23;;;10.43;;
46765;SDS011;32527;51.986;5.842;2023-07-29T05:06:17;12.65;;;11.75;;
46765;SDS011;32527;51.986;5.842;2023-07-29T05:08:44;14.27;;;13.23;;
46765;SDS011;32527;51.986;5.842;2023-07-29T05:11:10;13.13;;;12.10;;
46765;SDS011;32527;51.986;5.842;2023-07-29T05:13:36;12.52;;;11.68;;
46765;SDS011;32527;51.986;5.842;2023-07-29T05:16:03;13.65;;;12.30;;
46765;SDS011;32527;51.986;5.842;2023-07-29T05:18:29;13.82;;;12.93;;
46765;SDS011;32527;51.986;5.842;2023-07-29T05:20:55;11.85;;;11.05;;
46765;SDS011;32527;51.986;5.842;2023-07-29T05:23:21;13.38;;;12.52;;
46765;SDS011;32527;51.986;5.842;2023-07-29T05:25:48;14.75;;;13.77;;
46765;SDS011;32527;51.986;5.842;2023-07-29T05:28:14;12.95;;;12.15;;
46765;SDS011;32527;51.986;5.842;2023-07-29T05:30:40;14.32;;;13.43;;
46765;SDS011;32527;51.986;5.842;2023-07-29T05:33:06;17.25;;;16.25;;
46765;SDS011;32527;51.986;5.842;2023-07-29T05:35:33;15.55;;;14.65;;
46765;SDS011;32527;51.986;5.842;2023-07-29T05:37:59;18.98;;;17.98;;
46765;SDS011;32527;51.986;5.842;2023-07-29T05:40:26;23.50;;;22.27;;
46765;SDS011;32527;51.986;5.842;2023-07-29T05:42:52;16.55;;;15.52;;
46765;SDS011;32527;51.986;5.842;2023-07-29T05:45:18;18.55;;;17.55;;
46765;SDS011;32527;51.986;5.842;2023-07-29T05:47:45;19.05;;;18.00;;
46765;SDS011;32527;51.986;5.842;2023-07-29T05:50:11;21.58;;;20.38;;
46765;SDS011;32527;51.986;5.842;2023-07-29T05:52:37;23.23;;;21.92;;
46765;SDS011;32527;51.986;5.842;2023-07-29T05:55:03;20.10;;;19.00;;
46765;SDS011;32527;51.986;5.842;2023-07-29T05:57:30;22.60;;;21.40;;
46765;SDS011;32527;51.986;5.842;2023-07-29T05:59:56;23.45;;;22.15;;
46765;SDS011;32527;51.986;5.842;2023-07-29T06:02:22;23.20;;;22.00;;
46765;SDS011;32527;51.986;5.842;2023-07-29T06:04:48;22.13;;;20.92;;
46765;SDS011;32527;51.986;5.842;2023-07-29T06:07:14;20.15;;;19.05;;
46765;SDS011;32527;51.986;5.842;2023-07-29T06:09:40;22.35;;;21.13;;
46765;SDS011;32527;51.986;5.842;2023-07-29T06:12:07;26.45;;;25.05;;
46765;SDS011;32527;51.986;5.842;2023-07-29T06:14:33;23.33;;;22.08;;
46765;SDS011;32527;51.986;5.842;2023-07-29T06:16:59;25.35;;;24.05;;
46765;SDS011;32527;51.986;5.842;2023-07-29T06:19:25;24.17;;;22.88;;
46765;SDS011;32527;51.986;5.842;2023-07-29T06:21:51;27.75;;;26.35;;
46765;SDS011;32527;51.986;5.842;2023-07-29T06:24:21;29.67;;;28.02;;
46765;SDS011;32527;51.986;5.842;2023-07-29T06:26:47;25.90;;;24.60;;
46765;SDS011;32527;51.986;5.842;2023-07-29T06:29:13;27.10;;;25.75;;
46765;SDS011;32527;51.986;5.842;2023-07-29T06:31:39;27.65;;;26.33;;
46765;SDS011;32527;51.986;5.842;2023-07-29T06:34:05;26.35;;;24.45;;
46765;SDS011;32527;51.986;5.842;2023-07-29T06:36:31;27.92;;;26.45;;
46765;SDS011;32527;51.986;5.842;2023-07-29T06:38:57;25.95;;;24.65;;
46765;SDS011;32527;51.986;5.842;2023-07-29T06:41:23;24.20;;;22.80;;
46765;SDS011;32527;51.986;5.842;2023-07-29T06:43:49;21.48;;;20.38;;
46765;SDS011;32527;51.986;5.842;2023-07-29T06:46:15;24.02;;;22.75;;
46765;SDS011;32527;51.986;5.842;2023-07-29T06:48:41;26.58;;;25.27;;
46765;SDS011;32527;51.986;5.842;2023-07-29T06:51:07;28.92;;;27.42;;
46765;SDS011;32527;51.986;5.842;2023-07-29T06:53:33;32.88;;;31.17;;
46765;SDS011;32527;51.986;5.842;2023-07-29T06:55:59;30.58;;;28.80;;
46765;SDS011;32527;51.986;5.842;2023-07-29T06:58:25;31.42;;;29.77;;
46765;SDS011;32527;51.986;5.842;2023-07-29T07:00:51;30.10;;;28.45;;
46765;SDS011;32527;51.986;5.842;2023-07-29T07:03:17;30.60;;;29.10;;
46765;SDS011;32527;51.986;5.842;2023-07-29T07:05:43;27.77;;;26.38;;
46765;SDS011;32527;51.986;5.842;2023-07-29T07:08:09;31.33;;;29.73;;
46765;SDS011;32527;51.986;5.842;2023-07-29T07:10:35;28.48;;;27.02;;
46765;SDS011;32527;51.986;5.842;2023-07-29T07:13:01;28.30;;;26.90;;
46765;SDS011;32527;51.986;5.842;2023-07-29T07:15:27;26.88;;;25.48;;
46765;SDS011;32527;51.986;5.842;2023-07-29T07:17:53;28.73;;;27.23;;
46765;SDS011;32527;51.986;5.842;2023-07-29T07:20:19;29.38;;;27.77;;
46765;SDS011;32527;51.986;5.842;2023-07-29T07:22:45;30.05;;;28.42;;
46765;SDS011;32527;51.986;5.842;2023-07-29T07:25:10;31.83;;;30.15;;
46765;SDS011;32527;51.986;5.842;2023-07-29T07:27:37;30.10;;;28.48;;
46765;SDS011;32527;51.986;5.842;2023-07-29T07:30:03;32.90;;;31.15;;
46765;SDS011;32527;51.986;5.842;2023-07-29T07:32:29;32.53;;;30.95;;
46765;SDS011;32527;51.986;5.842;2023-07-29T07:34:55;33.42;;;31.83;;
46765;SDS011;32527;51.986;5.842;2023-07-29T07:37:21;34.85;;;33.13;;
46765;SDS011;32527;51.986;5.842;2023-07-29T07:39:47;36.63;;;34.72;;
46765;SDS011;32527;51.986;5.842;2023-07-29T07:42:13;35.42;;;33.67;;
46765;SDS011;32527;51.986;5.842;2023-07-29T07:44:39;34.28;;;32.58;;
46765;SDS011;32527;51.986;5.842;2023-07-29T07:47:04;38.08;;;36.20;;
46765;SDS011;32527;51.986;5.842;2023-07-29T07:49:30;33.15;;;31.50;;
46765;SDS011;32527;51.986;5.842;2023-07-29T07:51:56;33.13;;;31.42;;
46765;SDS011;32527;51.986;5.842;2023-07-29T07:54:22;38.33;;;36.50;;
46765;SDS011;32527;51.986;5.842;2023-07-29T07:56:48;33.00;;;30.90;;
46765;SDS011;32527;51.986;5.842;2023-07-29T07:59:14;32.17;;;30.48;;
46765;SDS011;32527;51.986;5.842;2023-07-29T08:01:40;26.92;;;25.23;;
46765;SDS011;32527;51.986;5.842;2023-07-29T08:04:06;33.15;;;31.58;;
46765;SDS011;32527;51.986;5.842;2023-07-29T08:06:33;31.80;;;30.13;;
46765;SDS011;32527;51.986;5.842;2023-07-29T08:09:00;35.08;;;33.40;;
46765;SDS011;32527;51.986;5.842;2023-07-29T08:11:26;32.92;;;31.08;;
46765;SDS011;32527;51.986;5.842;2023-07-29T08:13:52;31.00;;;29.05;;
46765;SDS011;32527;51.986;5.842;2023-07-29T08:16:18;34.15;;;32.50;;
46765;SDS011;32527;51.986;5.842;2023-07-29T08:18:44;35.10;;;33.38;;
46765;SDS011;32527;51.986;5.842;2023-07-29T08:21:12;34.70;;;32.95;;
46765;SDS011;32527;51.986;5.842;2023-07-29T08:23:38;37.97;;;36.08;;
46765;SDS011;32527;51.986;5.842;2023-07-29T08:26:04;35.90;;;34.15;;
46765;SDS011;32527;51.986;5.842;2023-07-29T08:28:31;34.22;;;32.53;;
46765;SDS011;32527;51.986;5.842;2023-07-29T08:30:58;34.45;;;32.75;;
46765;SDS011;32527;51.986;5.842;2023-07-29T08:33:24;33.10;;;31.50;;
46765;SDS011;32527;51.986;5.842;2023-07-29T08:35:50;32.08;;;30.40;;
46765;SDS011;32527;51.986;5.842;2023-07-29T08:38:16;33.78;;;32.13;;
46765;SDS011;32527;51.986;5.842;2023-07-29T08:40:48;34.08;;;32.45;;
46765;SDS011;32527;51.986;5.842;2023-07-29T08:43:22;35.10;;;33.42;;
46765;SDS011;32527;51.986;5.842;2023-07-29T08:45:58;32.10;;;30.58;;
46765;SDS011;32527;51.986;5.842;2023-07-29T08:48:29;35.20;;;33.55;;
46765;SDS011;32527;51.986;5.842;2023-07-29T08:50:55;36.40;;;34.47;;
46765;SDS011;32527;51.986;5.842;2023-07-29T08:53:21;37.97;;;36.28;;
46765;SDS011;32527;51.986;5.842;2023-07-29T08:55:47;38.30;;;36.42;;
46765;SDS011;32527;51.986;5.842;2023-07-29T08:58:15;39.58;;;37.78;;
46765;SDS011;32527;51.986;5.842;2023-07-29T09:00:41;40.10;;;38.30;;
46765;SDS011;32527;51.986;5.842;2023-07-29T09:03:07;37.05;;;35.35;;
46765;SDS011;32527;51.986;5.842;2023-07-29T09:05:33;37.38;;;35.65;;
46765;SDS011;32527;51.986;5.842;2023-07-29T09:08:00;36.20;;;34.58;;
46765;SDS011;32527;51.986;5.842;2023-07-29T09:10:27;38.30;;;36.60;;
46765;SDS011;32527;51.986;5.842;2023-07-29T09:12:53;41.45;;;39.55;;
46765;SDS011;32527;51.986;5.842;2023-07-29T09:15:26;38.15;;;36.35;;
46765;SDS011;32527;51.986;5.842;2023-07-29T09:17:52;38.58;;;36.88;;
46765;SDS011;32527;51.986;5.842;2023-07-29T09:20:23;38.85;;;37.05;;
46765;SDS011;32527;51.986;5.842;2023-07-29T09:22:50;35.90;;;34.25;;
46765;SDS011;32527;51.986;5.842;2023-07-29T09:25:16;35.47;;;33.88;;
46765;SDS011;32527;51.986;5.842;2023-07-29T09:27:42;36.15;;;34.42;;
46765;SDS011;32527;51.986;5.842;2023-07-29T09:30:15;37.42;;;35.63;;
46765;SDS011;32527;51.986;5.842;2023-07-29T09:32:41;35.97;;;33.60;;
46765;SDS011;32527;51.986;5.842;2023-07-29T09:35:13;35.90;;;34.25;;
46765;SDS011;32527;51.986;5.842;2023-07-29T09:37:40;35.33;;;33.72;;
46765;SDS011;32527;51.986;5.842;2023-07-29T09:40:06;35.65;;;33.97;;
46765;SDS011;32527;51.986;5.842;2023-07-29T09:42:38;35.80;;;34.17;;
46765;SDS011;32527;51.986;5.842;2023-07-29T09:45:04;38.33;;;36.53;;
46765;SDS011;32527;51.986;5.842;2023-07-29T09:47:30;33.38;;;31.88;;
46765;SDS011;32527;51.986;5.842;2023-07-29T09:49:56;37.60;;;35.90;;
46765;SDS011;32527;51.986;5.842;2023-07-29T09:52:22;36.75;;;35.08;;
46765;SDS011;32527;51.986;5.842;2023-07-29T09:54:49;40.03;;;38.22;;
46765;SDS011;32527;51.986;5.842;2023-07-29T09:57:16;39.20;;;37.40;;
46765;SDS011;32527;51.986;5.842;2023-07-29T09:59:42;38.40;;;36.67;;
46765;SDS011;32527;51.986;5.842;2023-07-29T10:02:09;37.90;;;36.20;;
46765;SDS011;32527;51.986;5.842;2023-07-29T10:04:43;36.63;;;34.90;;
46765;SDS011;32527;51.986;5.842;2023-07-29T10:07:11;37.42;;;35.72;;
46765;SDS011;32527;51.986;5.842;2023-07-29T10:09:40;38.88;;;37.17;;
46765;SDS011;32527;51.986;5.842;2023-07-29T10:12:06;32.42;;;30.90;;
46765;SDS011;32527;51.986;5.842;2023-07-29T10:14:33;39.55;;;37.70;;
46765;SDS011;32527;51.986;5.842;2023-07-29T10:16:59;37.72;;;35.95;;
46765;SDS011;32527;51.986;5.842;2023-07-29T10:19:25;36.70;;;35.00;;
46765;SDS011;32527;51.986;5.842;2023-07-29T10:21:52;38.72;;;36.97;;
46765;SDS011;32527;51.986;5.842;2023-07-29T10:24:22;34.40;;;32.78;;
46765;SDS011;32527;51.986;5.842;2023-07-29T10:26:57;33.25;;;31.75;;
46765;SDS011;32527;51.986;5.842;2023-07-29T10:29:24;34.83;;;33.22;;
46765;SDS011;32527;51.986;5.842;2023-07-29T10:31:55;33.10;;;31.60;;
46765;SDS011;32527;51.986;5.842;2023-07-29T10:34:25;33.55;;;31.88;;
46765;SDS011;32527;51.986;5.842;2023-07-29T10:36:51;36.70;;;35.03;;
46765;SDS011;32527;51.986;5.842;2023-07-29T10:39:18;34.47;;;32.92;;
46765;SDS011;32527;51.986;5.842;2023-07-29T10:42:02;35.30;;;33.72;;
46765;SDS011;32527;51.986;5.842;2023-07-29T10:47:21;37.90;;;36.00;;
46765;SDS011;32527;51.986;5.842;2023-07-29T10:49:55;34.20;;;32.60;;
46765;SDS011;32527;51.986;5.842;2023-07-29T10:52:28;39.35;;;37.45;;
46765;SDS011;32527;51.986;5.842;2023-07-29T10:54:56;38.95;;;37.17;;
46765;SDS011;32527;51.986;5.842;2023-07-29T10:57:38;37.75;;;35.85;;
46765;SDS011;32527;51.986;5.842;2023-07-29T11:00:06;34.83;;;33.22;;
46765;SDS011;32527;51.986;5.842;2023-07-29T11:02:34;40.30;;;38.40;;
46765;SDS011;32527;51.986;5.842;2023-07-29T11:05:15;37.92;;;36.22;;
46765;SDS011;32527;51.986;5.842;2023-07-29T11:07:48;39.47;;;37.67;;
46765;SDS011;32527;51.986;5.842;2023-07-29T11:10:14;38.97;;;37.17;;
46765;SDS011;32527;51.986;5.842;2023-07-29T11:12:47;40.88;;;39.00;;
46765;SDS011;32527;51.986;5.842;2023-07-29T11:15:26;37.47;;;35.72;;
46765;SDS011;32527;51.986;5.842;2023-07-29T11:18:00;41.97;;;40.08;;
46765;SDS011;32527;51.986;5.842;2023-07-29T11:22:52;37.83;;;36.03;;
46765;SDS011;32527;51.986;5.842;2023-07-29T11:25:22;38.53;;;36.72;;
46765;SDS011;32527;51.986;5.842;2023-07-29T11:27:48;39.58;;;37.78;;
46765;SDS011;32527;51.986;5.842;2023-07-29T11:30:15;39.10;;;37.33;;
46765;SDS011;32527;51.986;5.842;2023-07-29T11:32:42;39.38;;;37.58;;
46765;SDS011;32527;51.986;5.842;2023-07-29T11:37:40;40.35;;;38.55;;
46765;SDS011;32527;51.986;5.842;2023-07-29T11:40:07;42.25;;;40.35;;
46765;SDS011;32527;51.986;5.842;2023-07-29T11:42:35;39.38;;;37.47;;
46765;SDS011;32527;51.986;5.842;2023-07-29T11:45:02;39.75;;;37.80;;
46765;SDS011;32527;51.986;5.842;2023-07-29T11:47:32;39.47;;;37.67;;
46765;SDS011;32527;51.986;5.842;2023-07-29T11:50:04;40.80;;;38.60;;
46765;SDS011;32527;51.986;5.842;2023-07-29T11:52:32;40.92;;;39.08;;
46765;SDS011;32527;51.986;5.842;2023-07-29T11:54:59;38.75;;;36.95;;
46765;SDS011;32527;51.986;5.842;2023-07-29T11:57:27;38.15;;;36.42;;
46765;SDS011;32527;51.986;5.842;2023-07-29T11:59:53;37.90;;;36.13;;
46765;SDS011;32527;51.986;5.842;2023-07-29T12:02:19;37.22;;;35.53;;
46765;SDS011;32527;51.986;5.842;2023-07-29T12:04:46;39.40;;;37.60;;
46765;SDS011;32527;51.986;5.842;2023-07-29T12:07:13;37.60;;;35.85;;
46765;SDS011;32527;51.986;5.842;2023-07-29T12:09:40;36.78;;;34.97;;
46765;SDS011;32527;51.986;5.842;2023-07-29T12:12:07;36.78;;;34.92;;
46765;SDS011;32527;51.986;5.842;2023-07-29T12:14:34;38.83;;;36.67;;
46765;SDS011;32527;51.986;5.842;2023-07-29T12:17:00;34.42;;;32.72;;
46765;SDS011;32527;51.986;5.842;2023-07-29T12:19:34;31.30;;;29.67;;
46765;SDS011;32527;51.986;5.842;2023-07-29T12:22:03;27.02;;;25.73;;
46765;SDS011;32527;51.986;5.842;2023-07-29T12:24:32;22.10;;;20.90;;
46765;SDS011;32527;51.986;5.842;2023-07-29T12:26:58;17.15;;;16.20;;
46765;SDS011;32527;51.986;5.842;2023-07-29T12:29:25;14.30;;;13.50;;
46765;SDS011;32527;51.986;5.842;2023-07-29T12:31:58;13.77;;;12.95;;
46765;SDS011;32527;51.986;5.842;2023-07-29T12:34:25;11.30;;;10.60;;
46765;SDS011;32527;51.986;5.842;2023-07-29T12:36:53;11.95;;;11.27;;
46765;SDS011;32527;51.986;5.842;2023-07-29T12:41:47;10.40;;;9.80;;
46765;SDS011;32527;51.986;5.842;2023-07-29T12:44:13;10.88;;;10.27;;
46765;SDS011;32527;51.986;5.842;2023-07-29T12:46:39;9.35;;;8.75;;
46765;SDS011;32527;51.986;5.842;2023-07-29T12:49:05;10.50;;;9.90;;
46765;SDS011;32527;51.986;5.842;2023-07-29T12:51:32;9.50;;;8.80;;
46765;SDS011;32527;51.986;5.842;2023-07-29T12:53:58;11.07;;;10.07;;
46765;SDS011;32527;51.986;5.842;2023-07-29T12:56:24;11.73;;;11.07;;
46765;SDS011;32527;51.986;5.842;2023-07-29T12:58:51;11.75;;;11.02;;
46765;SDS011;32527;51.986;5.842;2023-07-29T13:01:17;12.63;;;11.93;;
46765;SDS011;32527;51.986;5.842;2023-07-29T13:03:49;13.48;;;12.77;;
46765;SDS011;32527;51.986;5.842;2023-07-29T13:06:15;14.32;;;13.55;;
46765;SDS011;32527;51.986;5.842;2023-07-29T13:08:42;15.32;;;14.52;;
46765;SDS011;32527;51.986;5.842;2023-07-29T13:11:09;17.05;;;16.15;;
46765;SDS011;32527;51.986;5.842;2023-07-29T13:13:35;19.38;;;18.38;;
46765;SDS011;32527;51.986;5.842;2023-07-29T13:16:01;24.48;;;23.27;;
46765;SDS011;32527;51.986;5.842;2023-07-29T13:18:27;17.27;;;16.38;;
46765;SDS011;32527;51.986;5.842;2023-07-29T13:20:53;18.60;;;17.60;;
46765;SDS011;32527;51.986;5.842;2023-07-29T13:23:19;20.77;;;19.67;;
46765;SDS011;32527;51.986;5.842;2023-07-29T13:25:45;22.13;;;21.00;;
46765;SDS011;32527;51.986;5.842;2023-07-29T13:28:11;16.23;;;15.38;;
46765;SDS011;32527;51.986;5.842;2023-07-29T13:30:38;19.25;;;18.25;;
46765;SDS011;32527;51.986;5.842;2023-07-29T13:33:05;23.00;;;21.88;;
46765;SDS011;32527;51.986;5.842;2023-07-29T13:35:32;23.58;;;22.38;;
46765;SDS011;32527;51.986;5.842;2023-07-29T13:37:58;25.25;;;23.95;;
46765;SDS011;32527;51.986;5.842;2023-07-29T13:40:23;25.95;;;24.55;;
46765;SDS011;32527;51.986;5.842;2023-07-29T13:42:49;24.73;;;23.42;;
46765;SDS011;32527;51.986;5.842;2023-07-29T13:45:15;24.25;;;23.00;;
46765;SDS011;32527;51.986;5.842;2023-07-29T13:47:41;24.27;;;23.08;;
46765;SDS011;32527;51.986;5.842;2023-07-29T13:50:07;23.48;;;22.27;;
46765;SDS011;32527;51.986;5.842;2023-07-29T13:52:33;27.42;;;26.10;;
46765;SDS011;32527;51.986;5.842;2023-07-29T13:54:59;29.63;;;28.20;;
46765;SDS011;32527;51.986;5.842;2023-07-29T13:57:25;28.70;;;27.30;;
46765;SDS011;32527;51.986;5.842;2023-07-29T13:59:50;29.65;;;28.17;;
46765;SDS011;32527;51.986;5.842;2023-07-29T14:02:16;30.58;;;29.08;;
46765;SDS011;32527;51.986;5.842;2023-07-29T14:04:43;30.08;;;28.60;;
46765;SDS011;32527;51.986;5.842;2023-07-29T14:07:09;25.63;;;24.33;;
46765;SDS011;32527;51.986;5.842;2023-07-29T14:09:35;27.48;;;26.08;;
46765;SDS011;32527;51.986;5.842;2023-07-29T14:12:01;28.15;;;26.75;;
46765;SDS011;32527;51.986;5.842;2023-07-29T14:14:27;24.60;;;23.40;;
46765;SDS011;32527;51.986;5.842;2023-07-29T14:16:53;29.88;;;28.45;;
46765;SDS011;32527;51.986;5.842;2023-07-29T14:19:19;24.23;;;23.02;;
46765;SDS011;32527;51.986;5.842;2023-07-29T14:21:44;33.17;;;31.60;;
46765;SDS011;32527;51.986;5.842;2023-07-29T14:24:10;28.35;;;26.65;;
46765;SDS011;32527;51.986;5.842;2023-07-29T14:26:36;26.48;;;25.17;;
46765;SDS011;32527;51.986;5.842;2023-07-29T14:29:02;26.38;;;25.05;;
46765;SDS011;32527;51.986;5.842;2023-07-29T14:31:28;24.95;;;23.60;;
46765;SDS011;32527;51.986;5.842;2023-07-29T14:33:54;24.27;;;23.02;;
46765;SDS011;32527;51.986;5.842;2023-07-29T14:36:20;28.98;;;27.40;;